Time;durP1;ratioP1;P1;durP2;ratioP2;P2;SDS_P1;SDS_P2;PMS_P1;PMS_P2;Temp;Humidity;BMP_temperature;BMP_pressure;BME280_temperature;BME280_humidity;BME280_pressure;Samples;Min_cycle;Max_cycle;Signal;HPM_P1;HPM_P2
2024/01/27 00:01:24;;;;;;;5.13;1.90;;;;;;;2.84;57.00;94358.63;5104965;28;20036;-85
2024/01/27 00:03:50;;;;;;;6.45;2.05;;;;;;;2.85;56.13;94339.13;5103612;28;20326;-87
2024/01/27 00:06:15;;;;;;;5.78;1.65;;;;;;;2.85;55.71;94328.59;5104931;28;20024;-87
2024/01/27 00:08:41;;;;;;;4.40;1.63;;;;;;;2.87;55.37;94327.34;5103465;28;20389;-86
2024/01/27 00:11:06;;;;;;;7.95;1.73;;;;;;;2.90;55.42;94332.06;5103652;28;20061;-87
2024/01/27 00:13:32;;;;;;;8.80;2.10;;;;;;;2.97;54.90;94331.84;5104576;28;20016;-86
2024/01/27 00:15:57;;;;;;;3.22;1.83;;;;;;;2.91;54.04;94325.78;5104825;28;20051;-86
2024/01/27 00:18:23;;;;;;;4.32;1.08;;;;;;;2.96;53.95;94325.00;5104483;28;20050;-86
2024/01/27 00:20:48;;;;;;;11.02;2.05;;;;;;;2.96;54.20;94322.38;5104343;28;20027;-86
2024/01/27 00:23:14;;;;;;;9.48;2.10;;;;;;;2.88;54.51;94310.47;5104463;28;20087;-86
2024/01/27 00:25:39;;;;;;;6.28;1.63;;;;;;;2.88;53.89;94314.94;5104554;28;20042;-87
2024/01/27 00:28:05;;;;;;;3.53;1.70;;;;;;;2.97;53.44;94310.78;5104195;28;20016;-87
2024/01/27 00:30:30;;;;;;;4.22;2.00;;;;;;;3.01;52.86;94312.69;5104002;28;20020;-87
2024/01/27 00:32:56;;;;;;;9.38;2.10;;;;;;;3.04;52.86;94329.81;5104041;28;20065;-87
2024/01/27 00:35:21;;;;;;;4.32;1.40;;;;;;;3.03;51.93;94322.16;5103112;28;20103;-87
2024/01/27 00:37:47;;;;;;;5.60;1.45;;;;;;;3.09;49.81;94313.22;5104073;28;20072;-87
2024/01/27 00:40:13;;;;;;;4.75;1.33;;;;;;;3.17;50.49;94304.84;5103301;28;20034;-88
2024/01/27 00:42:38;;;;;;;5.53;1.27;;;;;;;3.26;49.86;94315.69;5104179;28;20020;-88
2024/01/27 00:45:05;;;;;;;7.38;1.45;;;;;;;3.35;50.10;94316.81;5104662;28;20096;-87
2024/01/27 00:47:30;;;;;;;11.20;1.42;;;;;;;3.30;50.28;94322.84;5104011;28;20311;-88
2024/01/27 00:49:56;;;;;;;8.68;1.70;;;;;;;3.31;49.81;94332.31;5104169;28;20020;-88
2024/01/27 00:52:22;;;;;;;5.00;1.52;;;;;;;3.36;47.61;94328.94;5104232;28;20278;-88
2024/01/27 00:54:47;;;;;;;11.20;2.65;;;;;;;3.38;47.39;94303.91;5104123;28;20024;-87
2024/01/27 00:57:12;;;;;;;4.18;1.30;;;;;;;3.48;47.22;94320.81;5103974;28;20020;-85
2024/01/27 00:59:38;;;;;;;9.15;1.67;;;;;;;3.48;49.47;94320.81;5103824;28;20031;-85
2024/01/27 01:02:04;;;;;;;5.32;1.45;;;;;;;3.45;50.56;94310.78;5103910;28;20342;-84
2024/01/27 01:04:30;;;;;;;4.65;1.38;;;;;;;3.33;50.89;94311.00;5103908;28;20020;-84
2024/01/27 01:06:55;;;;;;;5.75;1.30;;;;;;;3.37;47.73;94315.50;5103849;28;20087;-85
2024/01/27 01:09:21;;;;;;;2.63;1.25;;;;;;;3.39;47.39;94297.56;5103717;28;20095;-84
2024/01/27 01:11:46;;;;;;;3.13;1.52;;;;;;;3.40;49.62;94303.66;5103141;28;20085;-86
2024/01/27 01:14:12;;;;;;;9.50;2.15;;;;;;;3.35;48.09;94314.94;5103482;28;20012;-87
2024/01/27 01:16:37;;;;;;;6.90;2.55;;;;;;;3.33;48.29;94311.78;5101827;28;20119;-87
2024/01/27 01:19:03;;;;;;;5.10;1.60;;;;;;;3.30;46.26;94304.41;5103154;28;20073;-86
2024/01/27 01:21:29;;;;;;;3.42;1.30;;;;;;;3.38;45.41;94319.72;5101614;28;20036;-87
2024/01/27 01:23:54;;;;;;;7.85;2.22;;;;;;;3.48;46.68;94310.25;5103248;28;20085;-87
2024/01/27 01:26:20;;;;;;;3.83;1.15;;;;;;;3.48;47.57;94311.06;5102063;28;20035;-90
2024/01/27 01:28:45;;;;;;;4.28;1.17;;;;;;;3.52;47.55;94306.06;5102155;28;20036;-78
2024/01/27 01:31:11;;;;;;;4.65;1.10;;;;;;;3.71;45.71;94309.06;5103270;28;20024;-89
2024/01/27 01:33:36;;;;;;;6.38;1.38;;;;;;;3.67;44.24;94319.31;5103142;28;20023;-90
2024/01/27 01:36:02;;;;;;;4.95;1.13;;;;;;;3.74;42.36;94295.34;5102758;28;20031;-90
2024/01/27 01:38:27;;;;;;;6.55;1.38;;;;;;;3.84;41.58;94276.13;5104235;28;20024;-90
2024/01/27 01:40:52;;;;;;;3.20;1.30;;;;;;;3.93;41.29;94283.28;5102439;28;20334;-90
2024/01/27 01:43:18;;;;;;;3.60;0.90;;;;;;;4.02;41.77;94286.19;5103263;28;20024;-90
2024/01/27 01:45:43;;;;;;;5.32;1.30;;;;;;;4.04;41.92;94285.94;5103960;28;20023;-89
2024/01/27 01:48:09;;;;;;;7.25;1.40;;;;;;;4.05;41.66;94287.50;5103865;28;20352;-89
2024/01/27 01:50:35;;;;;;;4.95;1.52;;;;;;;4.06;40.93;94274.06;5103885;28;20226;-89
2024/01/27 01:53:01;;;;;;;2.33;0.95;;;;;;;4.07;41.65;94278.28;5102190;28;20223;-90
2024/01/27 01:55:26;;;;;;;5.47;1.48;;;;;;;4.07;42.59;94267.75;5103591;28;20024;-89
2024/01/27 01:57:52;;;;;;;4.63;1.23;;;;;;;4.14;41.97;94280.66;5103500;28;20031;-89
2024/01/27 02:00:17;;;;;;;4.30;1.40;;;;;;;4.19;39.08;94281.47;5103297;28;20036;-89
2024/01/27 02:02:45;;;;;;;5.30;1.10;;;;;;;4.30;39.04;94278.84;5103000;28;20046;-90
2024/01/27 02:05:12;;;;;;;4.50;1.08;;;;;;;4.33;37.91;94275.66;5103499;28;20091;-90
2024/01/27 02:07:37;;;;;;;2.17;0.68;;;;;;;4.40;36.13;94294.69;5102290;28;20020;-89
2024/01/27 02:10:03;;;;;;;4.60;1.35;;;;;;;4.46;37.46;94272.50;5103710;28;20060;-89
2024/01/27 02:12:29;;;;;;;4.70;1.17;;;;;;;4.50;37.64;94267.47;5103529;28;20020;-89
2024/01/27 02:14:54;;;;;;;3.45;1.33;;;;;;;4.48;38.13;94249.28;5104438;28;20250;-87
2024/01/27 02:17:20;;;;;;;2.90;1.02;;;;;;;4.59;36.90;94244.78;5103950;28;20028;-88
2024/01/27 02:19:45;;;;;;;6.85;0.95;;;;;;;4.65;36.19;94258.78;5103760;28;20026;-89
2024/01/27 02:22:10;;;;;;;2.78;1.10;;;;;;;4.73;36.09;94229.97;5104840;28;20058;-90
2024/01/27 02:24:36;;;;;;;6.07;1.33;;;;;;;4.71;37.55;94257.72;5103226;28;20219;-89
2024/01/27 02:27:01;;;;;;;2.92;1.25;;;;;;;4.72;37.96;94264.56;5103074;28;20028;-89
2024/01/27 02:29:27;;;;;;;4.45;0.95;;;;;;;4.75;37.02;94254.28;5103309;28;20028;-90
2024/01/27 02:31:54;;;;;;;4.35;1.15;;;;;;;4.73;37.84;94234.47;5103318;28;20031;-89
2024/01/27 02:34:19;;;;;;;5.10;1.30;;;;;;;4.68;38.13;94245.84;5105019;28;20091;-90
2024/01/27 02:36:45;;;;;;;3.88;1.00;;;;;;;4.61;36.58;94232.88;5105983;28;20074;-90
2024/01/27 02:39:12;;;;;;;3.70;1.10;;;;;;;4.63;37.21;94246.63;5105953;28;20027;-90
2024/01/27 02:41:39;;;;;;;6.75;1.10;;;;;;;4.69;36.24;94239.50;5105346;28;20054;-88
2024/01/27 02:44:07;;;;;;;6.38;1.20;;;;;;;4.73;36.58;94266.94;5106336;28;20020;-88
2024/01/27 02:46:33;;;;;;;3.88;0.70;;;;;;;4.71;34.21;94244.50;5105932;28;20016;-87
2024/01/27 02:48:58;;;;;;;2.90;0.95;;;;;;;4.76;34.35;94249.78;5105945;28;20069;-87
2024/01/27 02:51:24;;;;;;;2.42;0.85;;;;;;;4.82;33.79;94235.50;5105781;28;20077;-86
2024/01/27 02:53:49;;;;;;;2.28;0.80;;;;;;;4.90;33.44;94228.88;5106198;28;20083;-89
2024/01/27 02:56:17;;;;;;;4.10;0.88;;;;;;;4.84;35.56;94238.66;5105688;28;20024;-89
2024/01/27 02:58:43;;;;;;;1.42;0.85;;;;;;;4.87;37.56;94224.94;5104599;28;20038;-88
2024/01/27 03:01:08;;;;;;;2.33;0.63;;;;;;;4.93;38.82;94229.16;5104308;28;20040;-87
2024/01/27 03:03:34;;;;;;;3.10;1.17;;;;;;;4.91;41.21;94239.19;5105380;28;20019;-89
2024/01/27 03:05:59;;;;;;;3.90;1.02;;;;;;;4.89;43.73;94236.03;5104391;28;20042;-87
2024/01/27 03:08:25;;;;;;;6.10;1.05;;;;;;;4.85;44.60;94240.25;5104388;28;20024;-87
2024/01/27 03:10:50;;;;;;;10.07;2.10;;;;;;;4.84;45.73;94257.16;5105729;28;20095;-86
2024/01/27 03:13:15;;;;;;;4.82;1.23;;;;;;;4.63;47.97;94264.31;5105748;28;20040;-86
2024/01/27 03:15:43;;;;;;;5.47;1.42;;;;;;;4.55;49.69;94239.22;5105730;28;20091;-86
2024/01/27 03:18:08;;;;;;;5.35;1.48;;;;;;;4.48;51.06;94264.31;5105350;28;20088;-87
2024/01/27 03:20:34;;;;;;;4.28;1.35;;;;;;;4.34;52.10;94270.13;5105940;28;20334;-87
2024/01/27 03:22:59;;;;;;;4.25;1.27;;;;;;;4.30;52.80;94255.09;5105739;28;20023;-87
2024/01/27 03:25:25;;;;;;;3.50;1.20;;;;;;;4.27;53.73;94259.03;5105535;28;20274;-87
2024/01/27 03:27:51;;;;;;;2.33;0.90;;;;;;;4.23;56.94;94268.53;5106743;28;20016;-87
2024/01/27 03:30:17;;;;;;;3.38;1.17;;;;;;;4.18;58.04;94250.84;5105263;28;20028;-87
2024/01/27 03:32:42;;;;;;;3.28;1.23;;;;;;;4.06;62.00;94252.94;5105417;28;20027;-87
2024/01/27 03:35:08;;;;;;;3.58;1.90;;;;;;;4.02;63.22;94257.16;5105158;28;20020;-87
2024/01/27 03:37:34;;;;;;;4.45;1.20;;;;;;;3.96;65.10;94247.66;5105661;28;20027;-88
2024/01/27 03:40:00;;;;;;;4.80;0.90;;;;;;;3.89;65.80;94239.19;5105810;28;20035;-88
2024/01/27 03:42:26;;;;;;;3.38;1.13;;;;;;;3.75;67.78;94228.38;5105367;28;20020;-87
2024/01/27 03:44:52;;;;;;;5.47;1.00;;;;;;;3.74;69.88;94232.84;5105289;28;20030;-86
2024/01/27 03:47:18;;;;;;;3.53;0.88;;;;;;;3.76;69.58;94232.59;5105560;28;20272;-89
2024/01/27 03:49:43;;;;;;;3.72;1.25;;;;;;;3.70;68.98;94233.63;5105722;28;20021;-88
2024/01/27 03:52:10;;;;;;;1.30;0.80;;;;;;;3.66;69.39;94225.44;5105636;28;20127;-89
2024/01/27 03:54:37;;;;;;;2.85;1.20;;;;;;;3.61;69.99;94210.41;5105913;28;20036;-89
2024/01/27 03:57:03;;;;;;;7.07;1.05;;;;;;;3.65;70.26;94215.97;5105369;28;20030;-89
2024/01/27 03:59:28;;;;;;;3.20;1.15;;;;;;;3.68;70.08;94210.16;5105806;28;20019;-89
2024/01/27 04:01:54;;;;;;;5.15;1.30;;;;;;;3.72;70.45;94211.22;5104840;28;20035;-90
2024/01/27 04:04:19;;;;;;;1.35;0.80;;;;;;;3.71;70.86;94214.94;5106846;28;20028;-90
2024/01/27 04:06:44;;;;;;;5.75;1.23;;;;;;;3.62;70.19;94221.75;5107618;28;20016;-90
2024/01/27 04:09:11;;;;;;;4.05;1.10;;;;;;;3.56;70.92;94217.53;5105013;28;20020;-88
2024/01/27 04:11:37;;;;;;;3.90;1.10;;;;;;;3.49;71.50;94227.53;5103482;28;20020;-87
2024/01/27 04:14:04;;;;;;;2.80;1.08;;;;;;;3.45;72.97;94215.91;5104607;28;20030;-91
2024/01/27 04:16:29;;;;;;;6.28;1.80;;;;;;;3.44;72.90;94220.41;5105393;28;20024;-89
2024/01/27 04:18:55;;;;;;;7.57;1.77;;;;;;;3.53;72.73;94210.94;5105081;28;20061;-88
2024/01/27 04:21:20;;;;;;;8.23;1.35;;;;;;;3.44;73.11;94209.06;5104780;28;20091;-88
2024/01/27 04:23:46;;;;;;;3.65;1.23;;;;;;;3.50;73.39;94208.84;5103220;28;20045;-89
2024/01/27 04:26:11;;;;;;;2.05;1.00;;;;;;;3.61;73.73;94212.28;5103501;28;20083;-89
2024/01/27 04:28:37;;;;;;;2.83;1.05;;;;;;;3.62;73.37;94224.38;5104568;28;20069;-88
2024/01/27 04:31:03;;;;;;;2.95;0.88;;;;;;;3.68;74.36;94209.38;5104129;28;20043;-89
2024/01/27 04:33:28;;;;;;;3.60;0.68;;;;;;;3.82;73.65;94237.59;5104424;28;20023;-87
2024/01/27 04:35:54;;;;;;;5.20;1.35;;;;;;;3.96;73.04;94221.28;5104318;28;20087;-88
2024/01/27 04:38:19;;;;;;;2.22;1.10;;;;;;;3.97;73.50;94255.31;5104622;28;20028;-88
2024/01/27 04:40:45;;;;;;;1.20;0.57;;;;;;;4.02;73.40;94254.53;5104052;28;20031;-90
2024/01/27 04:43:15;;;;;;;2.88;1.30;;;;;;;4.06;73.43;94231.84;5104527;28;20031;-90
2024/01/27 04:45:41;;;;;;;1.73;0.73;;;;;;;4.07;73.99;94228.19;5104913;28;20020;-90
2024/01/27 04:48:07;;;;;;;1.42;0.70;;;;;;;4.17;74.19;94211.53;5104016;28;20024;-87
2024/01/27 04:50:32;;;;;;;1.00;0.50;;;;;;;4.16;74.10;94223.94;5103888;28;20032;-86
2024/01/27 04:52:57;;;;;;;2.22;0.75;;;;;;;4.16;75.04;94229.22;5103425;28;20192;-87
2024/01/27 04:55:23;;;;;;;1.17;0.52;;;;;;;4.16;74.87;94236.34;5104380;28;20336;-88
2024/01/27 04:57:48;;;;;;;1.23;0.63;;;;;;;4.25;75.80;94233.97;5104259;28;20044;-90
2024/01/27 05:00:14;;;;;;;0.68;0.43;;;;;;;4.21;75.09;94231.06;5104928;28;20038;-89
2024/01/27 05:02:40;;;;;;;2.55;1.33;;;;;;;4.19;74.73;94231.34;5104134;28;20048;-89
2024/01/27 05:05:07;;;;;;;3.35;1.00;;;;;;;3.99;75.85;94224.19;5104588;28;20069;-91
2024/01/27 05:07:32;;;;;;;6.65;1.13;;;;;;;4.05;75.88;94237.38;5104401;28;20249;-91
2024/01/27 05:09:58;;;;;;;6.13;1.20;;;;;;;4.00;76.13;94233.69;5104988;28;20070;-90
2024/01/27 05:12:23;;;;;;;1.83;0.77;;;;;;;4.01;76.26;94245.84;5105030;28;20028;-90
2024/01/27 05:14:49;;;;;;;4.03;1.05;;;;;;;4.01;76.29;94229.22;5105143;28;20027;-89
2024/01/27 05:17:14;;;;;;;1.33;0.70;;;;;;;3.89;77.40;94234.75;5105996;28;20036;-90
2024/01/27 05:19:40;;;;;;;5.43;1.02;;;;;;;3.99;77.56;94240.03;5106659;28;20023;-91
2024/01/27 05:22:05;;;;;;;4.65;0.98;;;;;;;3.95;77.92;94249.53;5103887;28;20029;-89
2024/01/27 05:24:31;;;;;;;3.22;0.88;;;;;;;3.86;79.10;94251.06;5104508;28;20030;-90
2024/01/27 05:26:56;;;;;;;2.92;0.90;;;;;;;3.87;80.37;94242.13;5107040;28;20036;-89
2024/01/27 05:29:22;;;;;;;5.70;0.90;;;;;;;3.93;80.12;94242.91;5105200;28;20019;-90
2024/01/27 05:31:47;;;;;;;4.05;0.90;;;;;;;3.94;79.70;94233.94;5104867;28;20036;-89
2024/01/27 05:34:13;;;;;;;0.98;0.50;;;;;;;3.99;80.38;94232.13;5105002;28;20088;-89
2024/01/27 05:36:39;;;;;;;7.03;1.48;;;;;;;3.97;80.83;94247.41;5104801;28;20044;-89
2024/01/27 05:39:06;;;;;;;3.53;1.25;;;;;;;4.05;80.04;94240.03;5104076;28;20373;-87
2024/01/27 05:41:32;;;;;;;4.03;1.48;;;;;;;4.04;80.19;94257.69;5102648;28;20016;-87
2024/01/27 05:43:58;;;;;;;9.98;1.35;;;;;;;3.95;79.95;94248.72;5103855;28;20028;-87
2024/01/27 05:46:26;;;;;;;4.65;1.00;;;;;;;3.94;80.47;94257.69;5104361;28;20012;-90
2024/01/27 05:48:53;;;;;;;5.78;1.38;;;;;;;3.96;79.87;94256.34;5104795;28;20028;-90
2024/01/27 05:51:23;;;;;;;4.38;1.05;;;;;;;3.92;79.64;94257.16;5104298;28;20031;-91
2024/01/27 05:53:49;;;;;;;4.13;0.98;;;;;;;4.01;79.33;94250.31;5102975;28;20015;-92
2024/01/27 05:56:16;;;;;;;2.80;1.17;;;;;;;4.05;79.94;94261.94;5104427;28;20024;-92
2024/01/27 05:58:41;;;;;;;5.47;1.20;;;;;;;4.10;79.82;94269.06;5104392;28;20027;-89
2024/01/27 06:01:08;;;;;;;6.32;1.17;;;;;;;4.04;79.91;94262.19;5102796;28;20233;-88
2024/01/27 06:03:35;;;;;;;7.90;0.80;;;;;;;4.08;79.56;94281.72;5103235;28;20020;-88
2024/01/27 06:06:01;;;;;;;0.77;0.40;;;;;;;4.19;79.25;94286.75;5104319;28;20016;-90
2024/01/27 06:08:28;;;;;;;0.93;0.52;;;;;;;4.24;79.37;94262.22;5105693;28;20035;-90
2024/01/27 06:10:57;;;;;;;1.10;0.50;;;;;;;4.32;78.73;94276.72;5108065;28;20015;-89
2024/01/27 06:13:22;;;;;;;3.28;0.70;;;;;;;4.42;79.07;94279.38;5108778;28;20249;-91
2024/01/27 06:15:50;;;;;;;1.20;0.45;;;;;;;4.43;77.97;94283.59;5111197;28;20023;-90
2024/01/27 06:18:16;;;;;;;2.15;0.60;;;;;;;4.39;78.85;94283.31;5109401;28;20028;-89
2024/01/27 06:20:45;;;;;;;2.40;0.60;;;;;;;4.40;78.70;94284.91;5109640;28;20024;-88
2024/01/27 06:23:10;;;;;;;1.45;0.50;;;;;;;4.40;79.07;94299.97;5109779;28;20368;-89
2024/01/27 06:25:35;;;;;;;1.75;0.70;;;;;;;4.39;78.05;94311.56;5106284;28;20028;-89
2024/01/27 06:28:01;;;;;;;1.30;0.40;;;;;;;4.42;77.92;94284.66;5107714;28;20020;-90
2024/01/27 06:30:26;;;;;;;2.67;0.60;;;;;;;4.38;77.99;94302.84;5105672;28;20319;-86
2024/01/27 06:32:52;;;;;;;0.85;0.68;;;;;;;4.29;77.65;94299.13;5105864;28;20099;-89
2024/01/27 06:35:17;;;;;;;4.03;0.70;;;;;;;4.25;77.67;94344.78;5106745;28;20102;-87
2024/01/27 06:37:43;;;;;;;1.33;0.57;;;;;;;4.25;77.04;94326.31;5106699;28;20024;-88
2024/01/27 06:40:09;;;;;;;1.67;0.73;;;;;;;4.31;76.91;94338.47;5106516;28;20257;-88
2024/01/27 06:42:35;;;;;;;1.23;0.50;;;;;;;4.28;76.15;94333.72;5106229;28;20019;-87
2024/01/27 06:45:00;;;;;;;1.05;0.70;;;;;;;4.26;76.47;94333.97;5106498;28;20034;-86
2024/01/27 06:47:26;;;;;;;1.40;0.57;;;;;;;4.24;75.79;94312.34;5104952;28;20209;-87
2024/01/27 06:49:51;;;;;;;0.73;0.43;;;;;;;4.25;74.64;94350.84;5106021;28;20015;-87
2024/01/27 06:52:17;;;;;;;1.20;0.40;;;;;;;4.28;73.14;94347.72;5106023;28;20076;-84
2024/01/27 06:54:44;;;;;;;1.30;0.60;;;;;;;4.25;72.74;94350.06;5106126;28;20016;-84
2024/01/27 06:57:20;;;;;;;0.70;0.43;;;;;;;4.29;72.60;94369.59;5107061;28;20039;-84
2024/01/27 06:59:51;;;;;;;2.80;1.02;;;;;;;4.22;72.72;94360.09;5105976;28;20081;-87
2024/01/27 07:02:17;;;;;;;4.18;0.60;;;;;;;4.14;72.41;94359.81;5105923;28;20043;-85
2024/01/27 07:04:42;;;;;;;1.33;0.70;;;;;;;4.12;72.44;94354.78;5106627;28;20028;-86
2024/01/27 07:07:08;;;;;;;2.42;0.55;;;;;;;4.11;71.64;94358.50;5104729;28;20218;-86
2024/01/27 07:09:33;;;;;;;0.98;0.60;;;;;;;4.15;71.20;94356.94;5105585;28;20100;-86
2024/01/27 07:11:59;;;;;;;0.73;0.52;;;;;;;4.20;70.53;94341.09;5105755;28;20275;-87
2024/01/27 07:14:27;;;;;;;1.98;0.70;;;;;;;4.25;70.49;94360.63;5106145;28;20218;-87
2024/01/27 07:16:52;;;;;;;2.50;0.75;;;;;;;4.16;70.36;94342.66;5105989;28;20046;-86
2024/01/27 07:19:18;;;;;;;2.15;0.57;;;;;;;4.21;70.49;94355.88;5105621;28;20318;-86
2024/01/27 07:21:43;;;;;;;1.30;0.55;;;;;;;4.15;69.77;94333.19;5106809;28;20023;-86
2024/01/27 07:24:12;;;;;;;1.48;0.70;;;;;;;4.10;70.35;94362.19;5106344;28;20045;-89
2024/01/27 07:26:38;;;;;;;1.48;0.70;;;;;;;4.05;70.71;94348.97;5105876;28;20023;-87
2024/01/27 07:29:03;;;;;;;1.67;0.75;;;;;;;3.99;69.63;94357.94;5105933;28;20024;-85
2024/01/27 07:31:28;;;;;;;3.88;0.70;;;;;;;3.87;69.12;94378.44;5105265;28;20315;-88
2024/01/27 07:33:54;;;;;;;2.45;0.95;;;;;;;3.81;68.93;94373.16;5105603;28;20218;-88
2024/01/27 07:36:19;;;;;;;2.70;0.98;;;;;;;3.75;69.50;94394.50;5104111;28;20046;-89
2024/01/27 07:38:45;;;;;;;2.63;1.25;;;;;;;3.61;69.61;94415.25;5104207;28;20032;-89
2024/01/27 07:41:10;;;;;;;5.25;1.40;;;;;;;3.49;69.98;94425.19;5105072;28;20095;-87
2024/01/27 07:43:36;;;;;;;4.18;1.10;;;;;;;3.35;69.81;94440.66;5103420;28;20019;-87
2024/01/27 07:46:01;;;;;;;2.08;0.90;;;;;;;3.34;70.21;94429.31;5103744;28;20266;-87
2024/01/27 07:48:26;;;;;;;2.53;1.23;;;;;;;3.31;70.83;94436.94;5105057;28;20020;-88
2024/01/27 07:50:52;;;;;;;3.67;1.40;;;;;;;3.31;70.88;94493.03;5105324;28;20024;-89
2024/01/27 07:53:18;;;;;;;4.88;1.30;;;;;;;3.18;71.00;94470.56;5105293;28;20055;-89
2024/01/27 07:55:43;;;;;;;2.22;1.33;;;;;;;3.11;72.18;94450.72;5105958;28;20042;-92
2024/01/27 07:58:08;;;;;;;4.70;1.30;;;;;;;3.09;72.28;94437.81;5104816;28;20024;-91
2024/01/27 08:00:34;;;;;;;3.05;1.40;;;;;;;3.08;72.07;94451.25;5105608;28;20069;-91
2024/01/27 08:02:59;;;;;;;4.28;1.38;;;;;;;3.01;70.67;94428.56;5105741;28;20067;-89
2024/01/27 08:05:25;;;;;;;4.00;1.25;;;;;;;2.97;71.02;94509.09;5103364;28;20031;-87
2024/01/27 08:08:22;;;;;;;2.35;1.40;;;;;;;2.97;71.47;94466.16;5104379;28;20080;-87
2024/01/27 08:10:48;;;;;;;3.47;1.60;;;;;;;3.01;71.42;94481.22;5090400;28;20119;-88
2024/01/27 08:13:13;;;;;;;4.18;1.77;;;;;;;3.00;70.59;94489.38;5103451;28;20030;-88
2024/01/27 08:15:38;;;;;;;4.32;1.58;;;;;;;2.99;70.56;94508.84;5103564;28;20028;-88
2024/01/27 08:18:04;;;;;;;2.50;1.55;;;;;;;3.06;70.19;94469.94;5104135;28;20024;-88
2024/01/27 08:20:29;;;;;;;2.88;1.55;;;;;;;3.13;70.34;94446.00;5104435;28;20398;-89
2024/01/27 08:22:55;;;;;;;2.90;1.15;;;;;;;3.15;68.20;94425.47;5104549;28;20047;-87
2024/01/27 08:25:21;;;;;;;4.47;1.80;;;;;;;3.27;67.33;94449.81;5104110;28;20041;-88
2024/01/27 08:27:46;;;;;;;2.38;1.23;;;;;;;3.34;65.61;94433.81;5102670;28;20019;-86
2024/01/27 08:30:12;;;;;;;2.35;1.20;;;;;;;3.39;64.89;94439.88;5103967;28;20035;-87
2024/01/27 08:32:37;;;;;;;2.28;1.00;;;;;;;3.47;64.16;94408.84;5103101;28;20031;-87
2024/01/27 08:35:03;;;;;;;2.42;1.10;;;;;;;3.46;64.86;94455.50;5103994;28;20090;-86
2024/01/27 08:37:29;;;;;;;4.55;1.20;;;;;;;3.56;64.97;94445.00;5103712;28;20050;-89
2024/01/27 08:39:55;;;;;;;2.67;1.17;;;;;;;3.51;66.17;94467.91;5104384;28;20133;-89
2024/01/27 08:42:20;;;;;;;3.97;1.23;;;;;;;3.47;66.86;94446.53;5102818;28;20020;-86
2024/01/27 08:44:45;;;;;;;3.65;1.40;;;;;;;3.38;66.15;94435.66;5103755;28;20324;-87
2024/01/27 08:47:11;;;;;;;2.40;1.27;;;;;;;3.41;66.32;94410.66;5104101;28;20370;-82
2024/01/27 08:49:36;;;;;;;2.22;1.40;;;;;;;3.48;67.55;94423.59;5103476;28;20126;-81
2024/01/27 08:52:02;;;;;;;4.68;1.27;;;;;;;3.58;66.96;94463.19;5103501;28;20020;-79
2024/01/27 08:54:28;;;;;;;2.50;1.15;;;;;;;3.72;65.96;94450.34;5103438;28;20073;-80
2024/01/27 08:56:53;;;;;;;2.30;1.27;;;;;;;3.74;65.22;94398.16;5103528;28;20032;-80
2024/01/27 08:59:18;;;;;;;1.98;1.20;;;;;;;3.83;65.45;94415.09;5103164;28;20027;-80
2024/01/27 09:01:44;;;;;;;1.95;1.10;;;;;;;3.88;64.96;94419.59;5103485;28;20070;-85
2024/01/27 09:04:09;;;;;;;3.05;1.30;;;;;;;3.99;63.40;94400.91;5104289;28;20011;-81
2024/01/27 09:06:35;;;;;;;2.80;1.17;;;;;;;4.17;62.73;94396.22;5103209;28;20285;-78
2024/01/27 09:09:00;;;;;;;4.32;1.08;;;;;;;4.52;59.98;94416.66;5102952;28;20049;-78
2024/01/27 09:11:29;;;;;;;3.25;1.00;;;;;;;4.60;60.36;94389.72;5103362;28;20012;-78
2024/01/27 09:13:55;;;;;;;1.65;0.90;;;;;;;4.52;60.92;94397.34;5102953;28;20024;-78
2024/01/27 09:16:21;;;;;;;1.98;1.00;;;;;;;4.38;61.68;94357.50;5102927;28;20043;-79
2024/01/27 09:18:46;;;;;;;3.72;1.27;;;;;;;4.28;61.34;94403.13;5102785;28;20016;-83
2024/01/27 09:21:12;;;;;;;2.60;1.13;;;;;;;4.25;63.08;94408.91;5102899;28;20016;-82
2024/01/27 09:23:37;;;;;;;3.45;1.23;;;;;;;4.18;63.13;94387.25;5102852;28;20019;-83
2024/01/27 09:26:04;;;;;;;2.90;1.00;;;;;;;4.12;63.45;94389.09;5103052;28;20191;-82
2024/01/27 09:28:29;;;;;;;2.22;0.70;;;;;;;4.01;64.10;94419.13;5102045;28;20020;-83
2024/01/27 09:30:54;;;;;;;4.43;1.95;;;;;;;4.12;64.14;94397.00;5103617;28;20023;-84
2024/01/27 09:33:22;;;;;;;3.10;1.35;;;;;;;4.17;64.55;94415.50;5103121;28;20248;-83
2024/01/27 09:35:49;;;;;;;3.15;1.13;;;;;;;4.17;63.57;94402.31;5102900;28;20113;-82
2024/01/27 09:38:14;;;;;;;2.35;1.00;;;;;;;4.22;63.13;94399.66;5101810;28;20031;-84
2024/01/27 09:40:40;;;;;;;2.28;1.30;;;;;;;4.38;63.31;94442.75;5103002;28;20318;-84
2024/01/27 09:43:06;;;;;;;5.75;1.00;;;;;;;4.50;62.84;94395.00;5104799;28;20064;-83
2024/01/27 09:45:32;;;;;;;2.13;1.02;;;;;;;4.60;62.02;94431.19;5106498;28;20027;-84
2024/01/27 09:47:59;;;;;;;3.17;1.38;;;;;;;4.65;62.70;94423.25;5105217;28;20100;-82
2024/01/27 09:50:25;;;;;;;1.92;1.23;;;;;;;4.63;61.96;94447.28;5105566;28;20047;-82
2024/01/27 09:52:51;;;;;;;1.77;1.10;;;;;;;4.28;62.15;94460.41;5106611;28;20035;-82
2024/01/27 09:55:16;;;;;;;2.42;1.02;;;;;;;4.14;63.81;94463.50;5106266;28;20024;-80
2024/01/27 09:57:44;;;;;;;2.50;1.45;;;;;;;4.12;64.09;94462.97;5105162;28;20226;-85
2024/01/27 10:00:11;;;;;;;3.40;1.40;;;;;;;3.97;64.59;94457.63;5106392;28;20016;-83
2024/01/27 10:02:39;;;;;;;2.45;1.20;;;;;;;3.86;65.00;94469.94;5106429;28;20239;-87
2024/01/27 10:05:07;;;;;;;3.17;1.08;;;;;;;3.86;66.02;94455.97;5106926;28;20375;-85
2024/01/27 10:07:32;;;;;;;2.28;0.82;;;;;;;3.60;65.84;94459.28;5106785;28;20019;-83
2024/01/27 10:09:58;;;;;;;3.78;1.33;;;;;;;3.69;66.67;94480.66;5106725;28;20035;-84
2024/01/27 10:12:25;;;;;;;6.10;1.73;;;;;;;3.64;66.77;94495.66;5107056;28;20024;-83
2024/01/27 10:14:52;;;;;;;1.67;0.90;;;;;;;3.62;66.82;94498.53;5107571;28;20020;-84
2024/01/27 10:17:22;;;;;;;1.35;0.82;;;;;;;3.49;66.74;94491.09;5106681;28;20039;-84
2024/01/27 10:19:47;;;;;;;2.40;1.10;;;;;;;3.50;67.09;94475.03;5106751;28;20024;-78
2024/01/27 10:22:13;;;;;;;3.08;1.15;;;;;;;3.45;67.37;94508.44;5106134;28;20306;-78
2024/01/27 10:24:38;;;;;;;10.25;1.52;;;;;;;3.33;67.98;94514.66;5106462;28;20020;-77
2024/01/27 10:27:04;;;;;;;1.98;1.00;;;;;;;3.26;67.92;94498.28;5106015;28;20057;-77
2024/01/27 10:29:33;;;;;;;1.42;0.90;;;;;;;3.26;68.37;94534.34;5106593;28;20023;-80
2024/01/27 10:32:10;;;;;;;2.85;1.17;;;;;;;3.30;69.29;94506.50;5106237;28;20016;-77
2024/01/27 10:34:36;;;;;;;2.33;0.90;;;;;;;3.29;68.26;94476.69;5105692;28;20016;-75
2024/01/27 10:37:01;;;;;;;2.10;0.93;;;;;;;3.25;68.21;94515.13;5105820;28;20092;-78
2024/01/27 10:39:27;;;;;;;1.83;0.90;;;;;;;3.17;68.80;94500.56;5105884;28;20090;-80
2024/01/27 10:41:52;;;;;;;1.17;0.60;;;;;;;3.16;68.75;94514.00;5106016;28;20018;-75
2024/01/27 10:44:19;;;;;;;2.60;1.08;;;;;;;3.07;68.34;94531.28;5104937;28;20389;-83
2024/01/27 10:46:47;;;;;;;3.20;1.00;;;;;;;3.04;68.67;94527.31;5105062;28;20015;-83
2024/01/27 10:49:14;;;;;;;3.38;0.93;;;;;;;2.97;69.22;94519.63;5106083;28;20020;-82
2024/01/27 10:51:45;;;;;;;1.20;0.68;;;;;;;3.05;68.81;94533.38;5105865;28;20191;-79
2024/01/27 10:54:14;;;;;;;2.42;0.90;;;;;;;2.95;69.07;94540.16;5104340;28;20072;-80
2024/01/27 10:56:42;;;;;;;3.00;0.95;;;;;;;2.91;69.69;94523.25;5105136;28;20036;-80
2024/01/27 10:59:09;;;;;;;1.10;0.60;;;;;;;2.90;69.55;94526.13;5105359;28;20028;-82
2024/01/27 11:01:37;;;;;;;4.35;1.08;;;;;;;2.94;69.06;94511.44;5104460;28;20066;-79
2024/01/27 11:04:03;;;;;;;1.48;0.90;;;;;;;2.92;69.74;94514.31;5105419;28;20032;-81
2024/01/27 11:06:31;;;;;;;3.65;0.82;;;;;;;2.95;70.03;94563.03;5105728;28;20030;-79
2024/01/27 11:08:57;;;;;;;1.65;0.80;;;;;;;2.92;70.44;94543.28;5105593;28;20051;-79
2024/01/27 11:11:23;;;;;;;2.67;1.00;;;;;;;3.02;70.34;94555.75;5105393;28;20016;-79
2024/01/27 11:13:50;;;;;;;1.98;1.00;;;;;;;2.92;70.01;94532.75;5105142;28;20022;-78
2024/01/27 11:16:18;;;;;;;1.42;0.77;;;;;;;2.88;70.21;94531.66;5105140;28;20012;-79
2024/01/27 11:18:44;;;;;;;1.23;0.82;;;;;;;2.93;70.35;94544.88;5105212;28;20016;-79
2024/01/27 11:21:17;;;;;;;1.75;1.08;;;;;;;2.83;69.95;94539.50;5104156;28;20231;-79
2024/01/27 11:23:44;;;;;;;2.30;1.13;;;;;;;2.84;70.79;94542.94;5105170;28;20034;-79
2024/01/27 11:26:14;;;;;;;5.70;1.30;;;;;;;2.85;70.98;94544.50;5105059;28;20030;-79
2024/01/27 11:28:40;;;;;;;3.65;1.13;;;;;;;2.84;71.12;94535.81;5104886;28;20087;-80
2024/01/27 11:31:07;;;;;;;3.03;1.10;;;;;;;2.85;71.31;94550.59;5105046;28;20218;-79
2024/01/27 11:33:32;;;;;;;2.58;1.25;;;;;;;2.74;71.22;94560.19;5104913;28;20028;-78
2024/01/27 11:36:05;;;;;;;2.22;1.30;;;;;;;2.66;71.59;94599.31;5103464;28;20050;-78